sensor_id;sensor_type;location;lat;lon;timestamp;temperature;humidity
26230;DHT22;13960;50.860;4.352;2023-01-04T00:00:16;9.50;99.90
26230;DHT22;13960;50.860;4.352;2023-01-04T00:02:41;9.60;99.90
26230;DHT22;13960;50.860;4.352;2023-01-04T00:05:07;9.60;99.90
26230;DHT22;13960;50.860;4.352;2023-01-04T00:07:32;9.60;99.90
26230;DHT22;13960;50.860;4.352;2023-01-04T00:09:58;9.60;99.90
26230;DHT22;13960;50.860;4.352;2023-01-04T00:12:23;9.60;99.90
26230;DHT22;13960;50.860;4.352;2023-01-04T00:14:49;9.70;99.90
26230;DHT22;13960;50.860;4.352;2023-01-04T00:17:14;9.70;99.90
26230;DHT22;13960;50.860;4.352;2023-01-04T00:19:40;9.70;99.90
26230;DHT22;13960;50.860;4.352;2023-01-04T00:22:05;9.70;99.90
26230;DHT22;13960;50.860;4.352;2023-01-04T00:24:31;9.70;99.90
26230;DHT22;13960;50.860;4.352;2023-01-04T00:26:56;9.70;99.90
26230;DHT22;13960;50.860;4.352;2023-01-04T00:29:22;9.80;99.90
26230;DHT22;13960;50.860;4.352;2023-01-04T00:31:47;9.80;99.90
26230;DHT22;13960;50.860;4.352;2023-01-04T00:34:13;9.80;99.90
26230;DHT22;13960;50.860;4.352;2023-01-04T00:36:39;9.90;99.90
26230;DHT22;13960;50.860;4.352;2023-01-04T00:39:05;10.00;99.90
26230;DHT22;13960;50.860;4.352;2023-01-04T00:44:10;9.90;99.90
26230;DHT22;13960;50.860;4.352;2023-01-04T00:46:36;9.90;99.90
26230;DHT22;13960;50.860;4.352;2023-01-04T00:49:02;9.80;99.90
26230;DHT22;13960;50.860;4.352;2023-01-04T00:51:28;9.80;99.90
26230;DHT22;13960;50.860;4.352;2023-01-04T00:53:54;9.80;99.90
26230;DHT22;13960;50.860;4.352;2023-01-04T00:56:19;9.80;99.90
26230;DHT22;13960;50.860;4.352;2023-01-04T00:58:45;9.80;99.90
26230;DHT22;13960;50.860;4.352;2023-01-04T01:01:11;9.70;99.90
26230;DHT22;13960;50.860;4.352;2023-01-04T01:03:36;9.80;99.90
26230;DHT22;13960;50.860;4.352;2023-01-04T01:06:03;9.80;99.90
26230;DHT22;13960;50.860;4.352;2023-01-04T01:08:29;9.70;99.90
26230;DHT22;13960;50.860;4.352;2023-01-04T01:10:55;9.70;99.90
26230;DHT22;13960;50.860;4.352;2023-01-04T01:13:20;9.70;99.90
26230;DHT22;13960;50.860;4.352;2023-01-04T01:15:47;9.70;99.90
26230;DHT22;13960;50.860;4.352;2023-01-04T01:18:12;9.70;99.90
26230;DHT22;13960;50.860;4.352;2023-01-04T01:20:42;9.80;99.90
26230;DHT22;13960;50.860;4.352;2023-01-04T01:23:08;9.80;99.90
26230;DHT22;13960;50.860;4.352;2023-01-04T01:25:34;9.70;99.90
26230;DHT22;13960;50.860;4.352;2023-01-04T01:27:59;9.80;99.90
26230;DHT22;13960;50.860;4.352;2023-01-04T01:30:25;9.80;99.90
26230;DHT22;13960;50.860;4.352;2023-01-04T01:32:50;9.80;99.90
26230;DHT22;13960;50.860;4.352;2023-01-04T01:35:16;9.80;99.90
26230;DHT22;13960;50.860;4.352;2023-01-04T01:37:41;9.80;99.90
26230;DHT22;13960;50.860;4.352;2023-01-04T01:40:07;9.80;99.90
26230;DHT22;13960;50.860;4.352;2023-01-04T01:42:35;9.80;99.90
26230;DHT22;13960;50.860;4.352;2023-01-04T01:45:02;9.90;99.90
26230;DHT22;13960;50.860;4.352;2023-01-04T01:47:36;9.90;99.90
26230;DHT22;13960;50.860;4.352;2023-01-04T01:50:04;9.90;99.90
26230;DHT22;13960;50.860;4.352;2023-01-04T01:52:32;9.90;99.90
26230;DHT22;13960;50.860;4.352;2023-01-04T01:55:03;9.90;99.90
26230;DHT22;13960;50.860;4.352;2023-01-04T01:57:30;10.00;99.90
26230;DHT22;13960;50.860;4.352;2023-01-04T01:59:58;10.00;99.90
26230;DHT22;13960;50.860;4.352;2023-01-04T02:02:26;10.00;99.90
26230;DHT22;13960;50.860;4.352;2023-01-04T02:04:51;10.00;99.90
26230;DHT22;13960;50.860;4.352;2023-01-04T02:07:21;10.10;99.90
26230;DHT22;13960;50.860;4.352;2023-01-04T02:09:49;10.10;99.90
26230;DHT22;13960;50.860;4.352;2023-01-04T02:12:15;10.10;99.90
26230;DHT22;13960;50.860;4.352;2023-01-04T02:14:41;10.20;99.90
26230;DHT22;13960;50.860;4.352;2023-01-04T02:25:27;10.30;99.90
26230;DHT22;13960;50.860;4.352;2023-01-04T02:33:12;10.40;99.90
26230;DHT22;13960;50.860;4.352;2023-01-04T02:40:46;10.50;99.90
26230;DHT22;13960;50.860;4.352;2023-01-04T02:43:18;10.50;99.90
26230;DHT22;13960;50.860;4.352;2023-01-04T02:46:04;10.60;99.90
26230;DHT22;13960;50.860;4.352;2023-01-04T02:48:35;10.60;99.90
26230;DHT22;13960;50.860;4.352;2023-01-04T02:51:39;10.60;99.90
26230;DHT22;13960;50.860;4.352;2023-01-04T02:54:09;10.60;99.90
26230;DHT22;13960;50.860;4.352;2023-01-04T02:59:17;10.70;99.90
26230;DHT22;13960;50.860;4.352;2023-01-04T03:10:46;10.70;99.90
26230;DHT22;13960;50.860;4.352;2023-01-04T03:12:51;10.80;99.90
26230;DHT22;13960;50.860;4.352;2023-01-04T03:15:23;10.80;99.90
26230;DHT22;13960;50.860;4.352;2023-01-04T03:17:54;10.80;99.90
26230;DHT22;13960;50.860;4.352;2023-01-04T03:20:22;10.90;99.90
26230;DHT22;13960;50.860;4.352;2023-01-04T03:22:52;10.90;99.90
26230;DHT22;13960;50.860;4.352;2023-01-04T03:25:39;10.90;99.90
26230;DHT22;13960;50.860;4.352;2023-01-04T03:28:25;10.90;99.90
26230;DHT22;13960;50.860;4.352;2023-01-04T03:31:17;10.90;99.90
26230;DHT22;13960;50.860;4.352;2023-01-04T03:34:03;10.90;99.90
26230;DHT22;13960;50.860;4.352;2023-01-04T03:36:56;10.90;99.90
26230;DHT22;13960;50.860;4.352;2023-01-04T03:39:32;10.90;99.90
26230;DHT22;13960;50.860;4.352;2023-01-04T03:45:17;10.90;99.90
26230;DHT22;13960;50.860;4.352;2023-01-04T03:50:50;11.00;99.90
26230;DHT22;13960;50.860;4.352;2023-01-04T03:53:17;11.00;99.90
26230;DHT22;13960;50.860;4.352;2023-01-04T03:55:44;11.00;99.90
26230;DHT22;13960;50.860;4.352;2023-01-04T03:58:11;11.00;99.90
26230;DHT22;13960;50.860;4.352;2023-01-04T04:00:36;11.00;99.90
26230;DHT22;13960;50.860;4.352;2023-01-04T04:03:04;11.00;99.90
26230;DHT22;13960;50.860;4.352;2023-01-04T04:05:37;11.10;99.90
26230;DHT22;13960;50.860;4.352;2023-01-04T04:08:21;11.10;99.90
26230;DHT22;13960;50.860;4.352;2023-01-04T04:10:56;11.10;99.90
26230;DHT22;13960;50.860;4.352;2023-01-04T04:13:22;11.20;99.90
26230;DHT22;13960;50.860;4.352;2023-01-04T04:15:50;11.20;99.90
26230;DHT22;13960;50.860;4.352;2023-01-04T04:18:16;11.20;99.90
26230;DHT22;13960;50.860;4.352;2023-01-04T04:20:42;11.20;99.90
26230;DHT22;13960;50.860;4.352;2023-01-04T04:23:07;11.30;99.90
26230;DHT22;13960;50.860;4.352;2023-01-04T04:25:33;11.30;99.90
26230;DHT22;13960;50.860;4.352;2023-01-04T04:27:58;11.30;99.90
26230;DHT22;13960;50.860;4.352;2023-01-04T04:30:24;11.40;99.90
26230;DHT22;13960;50.860;4.352;2023-01-04T04:32:49;11.40;99.90
26230;DHT22;13960;50.860;4.352;2023-01-04T04:35:15;11.40;99.90
26230;DHT22;13960;50.860;4.352;2023-01-04T04:37:40;11.40;99.90
26230;DHT22;13960;50.860;4.352;2023-01-04T04:40:06;11.40;99.90
26230;DHT22;13960;50.860;4.352;2023-01-04T04:42:32;11.40;99.90
26230;DHT22;13960;50.860;4.352;2023-01-04T04:44:58;11.40;99.90
26230;DHT22;13960;50.860;4.352;2023-01-04T04:47:23;11.50;99.90
26230;DHT22;13960;50.860;4.352;2023-01-04T04:49:49;11.50;99.90
26230;DHT22;13960;50.860;4.352;2023-01-04T04:52:14;11.50;99.90
26230;DHT22;13960;50.860;4.352;2023-01-04T04:54:41;11.50;99.90
26230;DHT22;13960;50.860;4.352;2023-01-04T04:57:06;11.50;99.90
26230;DHT22;13960;50.860;4.352;2023-01-04T04:59:32;11.50;99.90
26230;DHT22;13960;50.860;4.352;2023-01-04T05:01:57;11.60;99.90
26230;DHT22;13960;50.860;4.352;2023-01-04T05:04:23;11.60;99.90
26230;DHT22;13960;50.860;4.352;2023-01-04T05:06:49;11.60;99.90
26230;DHT22;13960;50.860;4.352;2023-01-04T05:09:17;11.70;99.90
26230;DHT22;13960;50.860;4.352;2023-01-04T05:11:42;11.60;99.90
26230;DHT22;13960;50.860;4.352;2023-01-04T05:14:26;11.70;99.90
26230;DHT22;13960;50.860;4.352;2023-01-04T05:16:52;11.70;99.90
26230;DHT22;13960;50.860;4.352;2023-01-04T05:19:17;11.70;99.90
26230;DHT22;13960;50.860;4.352;2023-01-04T05:21:43;11.70;99.90
26230;DHT22;13960;50.860;4.352;2023-01-04T05:24:09;11.70;99.90
26230;DHT22;13960;50.860;4.352;2023-01-04T05:26:35;11.70;99.90
26230;DHT22;13960;50.860;4.352;2023-01-04T05:29:00;11.70;99.90
26230;DHT22;13960;50.860;4.352;2023-01-04T05:31:26;11.60;99.90
26230;DHT22;13960;50.860;4.352;2023-01-04T05:33:51;11.60;99.90
26230;DHT22;13960;50.860;4.352;2023-01-04T05:36:17;11.60;99.90
26230;DHT22;13960;50.860;4.352;2023-01-04T05:38:45;11.60;99.90
26230;DHT22;13960;50.860;4.352;2023-01-04T05:41:11;11.70;99.90
26230;DHT22;13960;50.860;4.352;2023-01-04T05:43:56;11.70;99.90
26230;DHT22;13960;50.860;4.352;2023-01-04T05:46:22;11.70;99.90
26230;DHT22;13960;50.860;4.352;2023-01-04T05:48:47;11.70;99.90
26230;DHT22;13960;50.860;4.352;2023-01-04T05:51:13;11.70;99.90
26230;DHT22;13960;50.860;4.352;2023-01-04T05:53:40;11.70;99.90
26230;DHT22;13960;50.860;4.352;2023-01-04T05:56:07;11.80;99.90
26230;DHT22;13960;50.860;4.352;2023-01-04T05:58:33;11.80;99.90
26230;DHT22;13960;50.860;4.352;2023-01-04T06:00:58;11.80;99.90
26230;DHT22;13960;50.860;4.352;2023-01-04T06:03:25;11.80;99.90
26230;DHT22;13960;50.860;4.352;2023-01-04T06:05:51;11.90;99.90
26230;DHT22;13960;50.860;4.352;2023-01-04T06:08:18;11.90;99.90
26230;DHT22;13960;50.860;4.352;2023-01-04T06:10:43;12.00;99.90
26230;DHT22;13960;50.860;4.352;2023-01-04T06:13:09;12.00;99.90
26230;DHT22;13960;50.860;4.352;2023-01-04T06:15:34;11.90;99.90
26230;DHT22;13960;50.860;4.352;2023-01-04T06:18:00;11.80;99.90
26230;DHT22;13960;50.860;4.352;2023-01-04T06:20:26;11.70;99.90
26230;DHT22;13960;50.860;4.352;2023-01-04T06:22:51;11.60;99.90
26230;DHT22;13960;50.860;4.352;2023-01-04T06:25:17;11.50;99.90
26230;DHT22;13960;50.860;4.352;2023-01-04T06:27:42;11.50;99.90
26230;DHT22;13960;50.860;4.352;2023-01-04T06:30:08;11.50;99.90
26230;DHT22;13960;50.860;4.352;2023-01-04T06:32:34;11.50;99.90
26230;DHT22;13960;50.860;4.352;2023-01-04T06:34:59;11.50;99.90
26230;DHT22;13960;50.860;4.352;2023-01-04T06:37:25;11.60;99.90
26230;DHT22;13960;50.860;4.352;2023-01-04T06:39:51;11.70;99.90
26230;DHT22;13960;50.860;4.352;2023-01-04T06:42:17;11.70;99.90
26230;DHT22;13960;50.860;4.352;2023-01-04T06:45:01;11.70;99.90
26230;DHT22;13960;50.860;4.352;2023-01-04T06:47:27;11.80;99.90
26230;DHT22;13960;50.860;4.352;2023-01-04T06:49:52;11.70;99.90
26230;DHT22;13960;50.860;4.352;2023-01-04T06:52:18;11.70;99.90
26230;DHT22;13960;50.860;4.352;2023-01-04T06:54:43;11.70;99.90
26230;DHT22;13960;50.860;4.352;2023-01-04T06:57:09;11.80;99.90
26230;DHT22;13960;50.860;4.352;2023-01-04T06:59:35;11.70;99.90
26230;DHT22;13960;50.860;4.352;2023-01-04T07:02:00;11.80;99.90
26230;DHT22;13960;50.860;4.352;2023-01-04T07:04:26;11.80;99.90
26230;DHT22;13960;50.860;4.352;2023-01-04T07:06:51;11.80;99.90
26230;DHT22;13960;50.860;4.352;2023-01-04T07:09:17;11.80;99.90
26230;DHT22;13960;50.860;4.352;2023-01-04T07:11:43;11.80;99.90
26230;DHT22;13960;50.860;4.352;2023-01-04T07:14:08;11.90;99.90
26230;DHT22;13960;50.860;4.352;2023-01-04T07:16:34;11.90;99.90
26230;DHT22;13960;50.860;4.352;2023-01-04T07:18:59;12.00;99.90
26230;DHT22;13960;50.860;4.352;2023-01-04T07:21:25;12.00;99.90
26230;DHT22;13960;50.860;4.352;2023-01-04T07:23:51;12.00;99.90
26230;DHT22;13960;50.860;4.352;2023-01-04T07:26:16;12.00;99.90
26230;DHT22;13960;50.860;4.352;2023-01-04T07:28:42;12.10;99.90
26230;DHT22;13960;50.860;4.352;2023-01-04T07:31:26;12.00;99.90
26230;DHT22;13960;50.860;4.352;2023-01-04T07:33:51;12.10;99.90
26230;DHT22;13960;50.860;4.352;2023-01-04T07:36:17;12.10;99.90
26230;DHT22;13960;50.860;4.352;2023-01-04T07:38:43;12.20;99.90
26230;DHT22;13960;50.860;4.352;2023-01-04T07:41:09;12.10;99.90
26230;DHT22;13960;50.860;4.352;2023-01-04T07:43:35;12.10;99.90
26230;DHT22;13960;50.860;4.352;2023-01-04T07:46:01;12.10;99.90
26230;DHT22;13960;50.860;4.352;2023-01-04T07:48:27;12.20;99.90
26230;DHT22;13960;50.860;4.352;2023-01-04T07:50:53;12.20;99.90
26230;DHT22;13960;50.860;4.352;2023-01-04T07:53:19;12.20;99.90
26230;DHT22;13960;50.860;4.352;2023-01-04T07:55:45;12.20;99.90
26230;DHT22;13960;50.860;4.352;2023-01-04T07:58:10;12.20;99.90
26230;DHT22;13960;50.860;4.352;2023-01-04T08:00:36;12.10;99.90
26230;DHT22;13960;50.860;4.352;2023-01-04T08:03:01;12.20;99.90
26230;DHT22;13960;50.860;4.352;2023-01-04T08:05:27;12.10;99.90
26230;DHT22;13960;50.860;4.352;2023-01-04T08:07:52;12.00;99.90
26230;DHT22;13960;50.860;4.352;2023-01-04T08:10:19;12.00;99.90
26230;DHT22;13960;50.860;4.352;2023-01-04T08:12:44;12.00;99.90
26230;DHT22;13960;50.860;4.352;2023-01-04T08:15:10;12.00;99.90
26230;DHT22;13960;50.860;4.352;2023-01-04T08:17:35;12.00;99.90
26230;DHT22;13960;50.860;4.352;2023-01-04T08:20:01;12.00;99.90
26230;DHT22;13960;50.860;4.352;2023-01-04T08:22:26;12.00;99.90
26230;DHT22;13960;50.860;4.352;2023-01-04T08:24:52;12.00;99.90
26230;DHT22;13960;50.860;4.352;2023-01-04T08:27:20;12.00;99.90
26230;DHT22;13960;50.860;4.352;2023-01-04T08:29:46;12.00;99.90
26230;DHT22;13960;50.860;4.352;2023-01-04T08:34:41;12.10;99.90
26230;DHT22;13960;50.860;4.352;2023-01-04T08:37:07;12.20;99.90
26230;DHT22;13960;50.860;4.352;2023-01-04T08:39:33;12.20;99.90
26230;DHT22;13960;50.860;4.352;2023-01-04T08:42:01;12.20;99.90
26230;DHT22;13960;50.860;4.352;2023-01-04T08:44:26;12.20;99.90
26230;DHT22;13960;50.860;4.352;2023-01-04T08:46:52;12.20;99.90
26230;DHT22;13960;50.860;4.352;2023-01-04T08:49:19;12.30;99.90
26230;DHT22;13960;50.860;4.352;2023-01-04T08:51:46;12.30;99.90
26230;DHT22;13960;50.860;4.352;2023-01-04T08:54:12;12.30;99.90
26230;DHT22;13960;50.860;4.352;2023-01-04T08:56:38;12.30;99.90
26230;DHT22;13960;50.860;4.352;2023-01-04T08:59:06;12.30;99.90
26230;DHT22;13960;50.860;4.352;2023-01-04T09:01:33;12.30;99.90
26230;DHT22;13960;50.860;4.352;2023-01-04T09:03:59;12.30;99.90
26230;DHT22;13960;50.860;4.352;2023-01-04T09:06:25;12.40;99.90
26230;DHT22;13960;50.860;4.352;2023-01-04T09:08:50;12.40;99.90
26230;DHT22;13960;50.860;4.352;2023-01-04T09:11:19;12.40;99.90
26230;DHT22;13960;50.860;4.352;2023-01-04T09:13:48;12.40;99.90
26230;DHT22;13960;50.860;4.352;2023-01-04T09:16:15;12.50;99.90
26230;DHT22;13960;50.860;4.352;2023-01-04T09:18:41;12.50;99.90
26230;DHT22;13960;50.860;4.352;2023-01-04T09:21:08;12.50;99.90
26230;DHT22;13960;50.860;4.352;2023-01-04T09:23:34;12.50;99.90
26230;DHT22;13960;50.860;4.352;2023-01-04T09:26:08;12.50;99.90
26230;DHT22;13960;50.860;4.352;2023-01-04T09:28:35;12.40;99.90
26230;DHT22;13960;50.860;4.352;2023-01-04T09:31:09;12.40;99.90
26230;DHT22;13960;50.860;4.352;2023-01-04T09:33:35;12.40;99.90
26230;DHT22;13960;50.860;4.352;2023-01-04T09:36:01;12.50;99.90
26230;DHT22;13960;50.860;4.352;2023-01-04T09:38:27;12.50;99.90
26230;DHT22;13960;50.860;4.352;2023-01-04T09:41:17;12.50;99.90
26230;DHT22;13960;50.860;4.352;2023-01-04T09:46:09;12.50;99.90
26230;DHT22;13960;50.860;4.352;2023-01-04T09:48:35;12.40;99.90
26230;DHT22;13960;50.860;4.352;2023-01-04T09:51:05;12.40;99.90
26230;DHT22;13960;50.860;4.352;2023-01-04T09:53:40;12.30;99.90
26230;DHT22;13960;50.860;4.352;2023-01-04T09:56:10;12.30;99.90
26230;DHT22;13960;50.860;4.352;2023-01-04T09:58:40;12.30;99.90
26230;DHT22;13960;50.860;4.352;2023-01-04T10:01:11;12.30;99.90
26230;DHT22;13960;50.860;4.352;2023-01-04T10:03:40;12.30;99.90
26230;DHT22;13960;50.860;4.352;2023-01-04T10:06:09;12.30;99.90
26230;DHT22;13960;50.860;4.352;2023-01-04T10:08:34;12.20;99.90
26230;DHT22;13960;50.860;4.352;2023-01-04T10:26:14;12.20;99.90
26230;DHT22;13960;50.860;4.352;2023-01-04T10:31:26;12.20;99.90
26230;DHT22;13960;50.860;4.352;2023-01-04T10:36:21;12.10;99.90
26230;DHT22;13960;50.860;4.352;2023-01-04T10:38:55;12.20;99.90
26230;DHT22;13960;50.860;4.352;2023-01-04T10:41:23;12.20;99.90
26230;DHT22;13960;50.860;4.352;2023-01-04T10:46:27;12.20;99.90
26230;DHT22;13960;50.860;4.352;2023-01-04T10:48:55;12.30;99.90
26230;DHT22;13960;50.860;4.352;2023-01-04T10:51:26;12.30;99.90
26230;DHT22;13960;50.860;4.352;2023-01-04T10:54:00;12.30;99.90
26230;DHT22;13960;50.860;4.352;2023-01-04T10:59:35;12.30;99.90
26230;DHT22;13960;50.860;4.352;2023-01-04T11:04:48;12.20;99.90
26230;DHT22;13960;50.860;4.352;2023-01-04T11:07:27;12.20;99.90
26230;DHT22;13960;50.860;4.352;2023-01-04T11:09:54;12.20;99.90
26230;DHT22;13960;50.860;4.352;2023-01-04T11:12:22;12.20;99.90
26230;DHT22;13960;50.860;4.352;2023-01-04T11:14:48;12.20;99.90
26230;DHT22;13960;50.860;4.352;2023-01-04T11:17:14;12.20;99.90
26230;DHT22;13960;50.860;4.352;2023-01-04T11:19:40;12.20;99.90
26230;DHT22;13960;50.860;4.352;2023-01-04T11:24:34;12.10;99.90
26230;DHT22;13960;50.860;4.352;2023-01-04T11:27:04;12.10;99.90
26230;DHT22;13960;50.860;4.352;2023-01-04T11:32:02;12.10;99.90
26230;DHT22;13960;50.860;4.352;2023-01-04T11:34:48;12.10;99.90
26230;DHT22;13960;50.860;4.352;2023-01-04T11:37:34;12.10;99.90
26230;DHT22;13960;50.860;4.352;2023-01-04T11:45:37;12.20;99.90
26230;DHT22;13960;50.860;4.352;2023-01-04T11:48:03;12.10;99.90
26230;DHT22;13960;50.860;4.352;2023-01-04T11:50:43;12.10;99.90
26230;DHT22;13960;50.860;4.352;2023-01-04T11:53:42;12.20;99.90
26230;DHT22;13960;50.860;4.352;2023-01-04T11:56:22;12.20;99.90
26230;DHT22;13960;50.860;4.352;2023-01-04T12:01:32;12.20;99.90
26230;DHT22;13960;50.860;4.352;2023-01-04T12:03:58;12.20;99.90
26230;DHT22;13960;50.860;4.352;2023-01-04T12:08:52;12.20;99.90
26230;DHT22;13960;50.860;4.352;2023-01-04T12:11:30;12.20;99.90
26230;DHT22;13960;50.860;4.352;2023-01-04T12:13:57;12.20;99.90
26230;DHT22;13960;50.860;4.352;2023-01-04T12:16:46;12.20;99.90
26230;DHT22;13960;50.860;4.352;2023-01-04T12:19:15;12.30;99.90
26230;DHT22;13960;50.860;4.352;2023-01-04T12:21:42;12.30;99.90
26230;DHT22;13960;50.860;4.352;2023-01-04T12:24:08;12.30;99.90
26230;DHT22;13960;50.860;4.352;2023-01-04T12:26:39;12.30;99.90
26230;DHT22;13960;50.860;4.352;2023-01-04T12:31:49;12.30;99.90
26230;DHT22;13960;50.860;4.352;2023-01-04T12:36:55;12.30;99.90
26230;DHT22;13960;50.860;4.352;2023-01-04T12:54:57;12.40;99.90
26230;DHT22;13960;50.860;4.352;2023-01-04T12:57:38;12.40;99.90
26230;DHT22;13960;50.860;4.352;2023-01-04T13:04:59;12.50;99.90
26230;DHT22;13960;50.860;4.352;2023-01-04T13:07:40;12.50;99.90
26230;DHT22;13960;50.860;4.352;2023-01-04T13:10:17;12.50;99.90
26230;DHT22;13960;50.860;4.352;2023-01-04T13:15:15;12.60;99.90
26230;DHT22;13960;50.860;4.352;2023-01-04T13:17:43;12.60;99.90
26230;DHT22;13960;50.860;4.352;2023-01-04T13:20:13;12.70;99.90
26230;DHT22;13960;50.860;4.352;2023-01-04T13:22:39;12.70;99.90
26230;DHT22;13960;50.860;4.352;2023-01-04T13:25:11;12.80;99.90
26230;DHT22;13960;50.860;4.352;2023-01-04T13:27:37;12.90;99.90
26230;DHT22;13960;50.860;4.352;2023-01-04T13:30:03;12.90;99.90
26230;DHT22;13960;50.860;4.352;2023-01-04T13:32:32;12.90;99.90
26230;DHT22;13960;50.860;4.352;2023-01-04T13:35:02;12.90;99.90
26230;DHT22;13960;50.860;4.352;2023-01-04T13:40:00;12.90;99.90
26230;DHT22;13960;50.860;4.352;2023-01-04T13:42:27;12.90;99.90
26230;DHT22;13960;50.860;4.352;2023-01-04T13:47:25;12.90;99.90
26230;DHT22;13960;50.860;4.352;2023-01-04T13:49:51;12.90;99.90
26230;DHT22;13960;50.860;4.352;2023-01-04T13:52:27;12.90;99.90
26230;DHT22;13960;50.860;4.352;2023-01-04T13:57:37;12.90;99.90
26230;DHT22;13960;50.860;4.352;2023-01-04T14:00:06;12.90;99.90
26230;DHT22;13960;50.860;4.352;2023-01-04T14:02:32;12.80;99.90
26230;DHT22;13960;50.860;4.352;2023-01-04T14:05:00;12.80;99.90
26230;DHT22;13960;50.860;4.352;2023-01-04T14:07:25;12.80;99.90
26230;DHT22;13960;50.860;4.352;2023-01-04T14:09:53;12.80;99.90
26230;DHT22;13960;50.860;4.352;2023-01-04T14:12:21;12.80;99.90
26230;DHT22;13960;50.860;4.352;2023-01-04T14:14:51;12.80;99.90
26230;DHT22;13960;50.860;4.352;2023-01-04T14:24:45;12.80;99.90
26230;DHT22;13960;50.860;4.352;2023-01-04T14:29:56;12.80;99.90
26230;DHT22;13960;50.860;4.352;2023-01-04T14:32:21;12.70;99.90
26230;DHT22;13960;50.860;4.352;2023-01-04T14:34:47;12.80;99.90
26230;DHT22;13960;50.860;4.352;2023-01-04T14:37:12;12.80;99.90
26230;DHT22;13960;50.860;4.352;2023-01-04T14:39:38;12.80;99.90
26230;DHT22;13960;50.860;4.352;2023-01-04T14:42:04;12.80;99.90
26230;DHT22;13960;50.860;4.352;2023-01-04T14:44:30;12.80;99.90
26230;DHT22;13960;50.860;4.352;2023-01-04T14:46:59;12.80;99.90
26230;DHT22;13960;50.860;4.352;2023-01-04T14:49:25;12.80;99.90
26230;DHT22;13960;50.860;4.352;2023-01-04T14:51:57;12.90;99.90
26230;DHT22;13960;50.860;4.352;2023-01-04T14:54:24;12.90;99.90
26230;DHT22;13960;50.860;4.352;2023-01-04T14:56:50;12.90;99.90
26230;DHT22;13960;50.860;4.352;2023-01-04T14:59:16;13.00;99.90
26230;DHT22;13960;50.860;4.352;2023-01-04T15:01:41;13.10;99.90
26230;DHT22;13960;50.860;4.352;2023-01-04T15:04:07;13.10;99.90
26230;DHT22;13960;50.860;4.352;2023-01-04T15:06:32;13.00;99.90
26230;DHT22;13960;50.860;4.352;2023-01-04T15:08:58;13.00;99.90
26230;DHT22;13960;50.860;4.352;2023-01-04T15:11:24;12.90;99.90
26230;DHT22;13960;50.860;4.352;2023-01-04T15:13:49;12.90;99.90
26230;DHT22;13960;50.860;4.352;2023-01-04T15:16:16;12.90;99.90
26230;DHT22;13960;50.860;4.352;2023-01-04T15:18:42;13.00;99.90
26230;DHT22;13960;50.860;4.352;2023-01-04T15:21:08;13.10;99.90
26230;DHT22;13960;50.860;4.352;2023-01-04T15:23:34;13.20;99.90
26230;DHT22;13960;50.860;4.352;2023-01-04T15:26:02;13.20;99.90
26230;DHT22;13960;50.860;4.352;2023-01-04T15:28:28;13.10;99.90
26230;DHT22;13960;50.860;4.352;2023-01-04T15:30:53;13.10;99.90
26230;DHT22;13960;50.860;4.352;2023-01-04T15:33:18;13.10;99.90
26230;DHT22;13960;50.860;4.352;2023-01-04T15:35:44;13.10;99.90
26230;DHT22;13960;50.860;4.352;2023-01-04T15:38:10;13.10;99.90
26230;DHT22;13960;50.860;4.352;2023-01-04T15:40:35;13.10;99.90
26230;DHT22;13960;50.860;4.352;2023-01-04T15:43:01;13.10;99.90
26230;DHT22;13960;50.860;4.352;2023-01-04T15:45:29;13.00;99.90
26230;DHT22;13960;50.860;4.352;2023-01-04T15:47:55;13.00;99.90
26230;DHT22;13960;50.860;4.352;2023-01-04T15:50:32;13.00;99.90
26230;DHT22;13960;50.860;4.352;2023-01-04T15:52:58;13.00;99.90
26230;DHT22;13960;50.860;4.352;2023-01-04T15:55:24;12.90;99.90
26230;DHT22;13960;50.860;4.352;2023-01-04T15:57:50;13.00;99.90
26230;DHT22;13960;50.860;4.352;2023-01-04T16:00:15;12.90;99.90
26230;DHT22;13960;50.860;4.352;2023-01-04T16:02:41;12.90;99.90
26230;DHT22;13960;50.860;4.352;2023-01-04T16:05:07;12.90;99.90
26230;DHT22;13960;50.860;4.352;2023-01-04T16:07:33;12.80;99.90
26230;DHT22;13960;50.860;4.352;2023-01-04T16:09:58;12.80;99.90
26230;DHT22;13960;50.860;4.352;2023-01-04T16:12:24;12.80;99.90
26230;DHT22;13960;50.860;4.352;2023-01-04T16:15:18;12.80;99.90
26230;DHT22;13960;50.860;4.352;2023-01-04T16:17:45;12.80;99.90
26230;DHT22;13960;50.860;4.352;2023-01-04T16:20:11;12.80;99.90
26230;DHT22;13960;50.860;4.352;2023-01-04T16:22:37;12.80;99.90
26230;DHT22;13960;50.860;4.352;2023-01-04T16:25:03;12.70;99.90
26230;DHT22;13960;50.860;4.352;2023-01-04T16:27:32;12.70;99.90
26230;DHT22;13960;50.860;4.352;2023-01-04T16:29:58;12.70;99.90
26230;DHT22;13960;50.860;4.352;2023-01-04T16:32:24;12.70;99.90
26230;DHT22;13960;50.860;4.352;2023-01-04T16:34:50;12.70;99.90
26230;DHT22;13960;50.860;4.352;2023-01-04T16:37:16;12.70;99.90
26230;DHT22;13960;50.860;4.352;2023-01-04T16:39:41;12.70;99.90
26230;DHT22;13960;50.860;4.352;2023-01-04T16:42:07;12.70;99.90
26230;DHT22;13960;50.860;4.352;2023-01-04T16:44:32;12.70;99.90
26230;DHT22;13960;50.860;4.352;2023-01-04T16:46:58;12.70;99.90
26230;DHT22;13960;50.860;4.352;2023-01-04T16:49:23;12.70;99.90
26230;DHT22;13960;50.860;4.352;2023-01-04T16:51:49;12.70;99.90
26230;DHT22;13960;50.860;4.352;2023-01-04T16:54:15;12.70;99.90
26230;DHT22;13960;50.860;4.352;2023-01-04T16:56:41;12.70;99.90
26230;DHT22;13960;50.860;4.352;2023-01-04T16:59:09;12.70;99.90
26230;DHT22;13960;50.860;4.352;2023-01-04T17:01:36;12.70;99.90
26230;DHT22;13960;50.860;4.352;2023-01-04T17:04:03;12.70;99.90
26230;DHT22;13960;50.860;4.352;2023-01-04T17:06:31;12.70;99.90
26230;DHT22;13960;50.860;4.352;2023-01-04T17:08:57;12.60;99.90
26230;DHT22;13960;50.860;4.352;2023-01-04T17:11:27;12.60;99.90
26230;DHT22;13960;50.860;4.352;2023-01-04T17:13:53;12.50;99.90
26230;DHT22;13960;50.860;4.352;2023-01-04T17:16:19;12.60;99.90
26230;DHT22;13960;50.860;4.352;2023-01-04T17:18:48;12.50;99.90
26230;DHT22;13960;50.860;4.352;2023-01-04T17:21:14;12.50;99.90
26230;DHT22;13960;50.860;4.352;2023-01-04T17:23:41;12.50;99.90
26230;DHT22;13960;50.860;4.352;2023-01-04T17:26:08;12.50;99.90
26230;DHT22;13960;50.860;4.352;2023-01-04T17:28:34;12.60;99.90
26230;DHT22;13960;50.860;4.352;2023-01-04T17:31:02;12.50;99.90
26230;DHT22;13960;50.860;4.352;2023-01-04T17:33:28;12.50;99.90
26230;DHT22;13960;50.860;4.352;2023-01-04T17:35:53;12.50;99.90
26230;DHT22;13960;50.860;4.352;2023-01-04T17:38:19;12.50;99.90
26230;DHT22;13960;50.860;4.352;2023-01-04T17:40:44;12.50;99.90
26230;DHT22;13960;50.860;4.352;2023-01-04T17:43:10;12.60;99.90
26230;DHT22;13960;50.860;4.352;2023-01-04T17:45:35;12.60;99.90
26230;DHT22;13960;50.860;4.352;2023-01-04T17:48:01;12.70;99.90
26230;DHT22;13960;50.860;4.352;2023-01-04T17:50:27;12.60;99.90